Time;durP1;ratioP1;P1;durP2;ratioP2;P2;SDS_P1;SDS_P2;PMS_P1;PMS_P2;Temp;Humidity;BMP_temperature;BMP_pressure;BME280_temperature;BME280_humidity;BME280_pressure;Samples;Min_cycle;Max_cycle;Signal;HPM_P1;HPM_P2
2023/01/09 00:01:41;;;;;;;0.70;0.70;;;7.70;99.90;;;;;;5047751;27;20092;-80
2023/01/09 00:04:07;;;;;;;0.70;0.70;;;7.80;99.90;;;;;;5052170;27;20049;-81
2023/01/09 00:06:34;;;;;;;0.68;0.68;;;7.70;99.90;;;;;;5045003;27;20992;-80
2023/01/09 00:09:00;;;;;;;0.60;0.60;;;7.70;99.90;;;;;;5061090;27;20047;-81
2023/01/09 00:11:26;;;;;;;0.70;0.70;;;7.80;99.90;;;;;;5053964;27;20537;-79
2023/01/09 00:13:52;;;;;;;0.60;0.60;;;7.80;99.90;;;;;;5051241;27;20527;-80
2023/01/09 00:16:19;;;;;;;0.70;0.70;;;7.80;99.90;;;;;;5047765;27;20177;-79
2023/01/09 00:18:45;;;;;;;0.65;0.65;;;7.90;99.90;;;;;;5036294;27;20111;-79
2023/01/09 00:21:12;;;;;;;0.60;0.60;;;7.90;99.90;;;;;;5067345;27;20042;-80
2023/01/09 00:23:37;;;;;;;0.60;0.60;;;7.80;99.90;;;;;;5040953;27;20158;-79
2023/01/09 00:26:12;;;;;;;0.60;0.60;;;8.00;99.90;;;;;;5027751;27;20042;-79
2023/01/09 00:28:38;;;;;;;0.70;0.70;;;7.90;99.90;;;;;;5051795;27;20055;-80
2023/01/09 00:31:06;;;;;;;0.70;0.70;;;8.00;99.90;;;;;;5054017;27;20075;-80
2023/01/09 00:33:34;;;;;;;0.70;0.70;;;7.90;99.90;;;;;;5036453;27;20051;-80
2023/01/09 00:36:00;;;;;;;0.60;0.60;;;8.00;99.90;;;;;;5044038;27;20051;-80
2023/01/09 00:38:26;;;;;;;0.60;0.60;;;8.00;99.90;;;;;;5048194;27;20043;-80
2023/01/09 00:40:54;;;;;;;0.70;0.70;;;8.10;99.90;;;;;;5025632;27;20777;-81
2023/01/09 00:43:23;;;;;;;0.65;0.65;;;8.00;99.90;;;;;;5042157;27;20659;-80
2023/01/09 00:45:49;;;;;;;0.70;0.70;;;8.10;99.90;;;;;;5053481;27;20054;-80
2023/01/09 00:48:25;;;;;;;0.60;0.60;;;8.10;99.90;;;;;;5037663;27;20047;-81
2023/01/09 00:50:53;;;;;;;0.60;0.60;;;8.20;99.90;;;;;;5042489;27;20641;-82
2023/01/09 00:53:22;;;;;;;0.70;0.70;;;8.30;99.90;;;;;;5025364;27;20903;-82
2023/01/09 00:55:50;;;;;;;0.70;0.70;;;8.20;99.90;;;;;;5038285;27;20683;-82
2023/01/09 00:58:16;;;;;;;0.70;0.70;;;8.20;99.90;;;;;;5023483;27;20150;-83
2023/01/09 01:00:42;;;;;;;0.60;0.60;;;8.30;99.90;;;;;;5042502;27;20080;-82
2023/01/09 01:03:08;;;;;;;0.60;0.60;;;8.30;99.90;;;;;;5016788;27;20134;-81
2023/01/09 01:08:18;;;;;;;;;;;8.20;99.90;;;;;;5026825;27;20079;-83
2023/01/09 01:10:45;;;;;;;0.60;0.60;;;8.20;99.90;;;;;;5031750;27;19975;-83
2023/01/09 01:13:11;;;;;;;0.70;0.70;;;8.20;99.90;;;;;;5033052;27;21049;-82
2023/01/09 01:15:39;;;;;;;0.60;0.60;;;8.20;99.90;;;;;;5037977;27;20119;-82
2023/01/09 01:18:05;;;;;;;0.60;0.60;;;8.20;99.90;;;;;;5029656;27;21098;-82
2023/01/09 01:20:31;;;;;;;0.60;0.60;;;8.20;99.90;;;;;;5033177;27;20505;-83
2023/01/09 01:22:59;;;;;;;0.60;0.60;;;8.10;99.90;;;;;;5039503;27;20043;-82
2023/01/09 01:25:31;;;;;;;0.60;0.60;;;8.00;99.90;;;;;;5018733;27;20880;-83
2023/01/09 01:27:57;;;;;;;0.60;0.60;;;8.20;99.90;;;;;;5029543;27;20214;-82
2023/01/09 01:30:22;;;;;;;0.60;0.60;;;8.20;99.90;;;;;;5029370;27;20088;-82
2023/01/09 01:32:48;;;;;;;0.60;0.60;;;8.10;99.90;;;;;;5022947;28;20967;-82
2023/01/09 01:35:14;;;;;;;0.60;0.60;;;8.10;99.90;;;;;;5040792;27;20567;-83
2023/01/09 01:37:40;;;;;;;0.60;0.60;;;8.00;99.90;;;;;;5031844;27;20108;-82
2023/01/09 01:40:08;;;;;;;0.70;0.70;;;8.00;99.90;;;;;;5030793;27;20511;-82
2023/01/09 01:42:34;;;;;;;0.60;0.60;;;7.90;99.90;;;;;;5038980;27;20144;-82
2023/01/09 01:45:09;;;;;;;0.60;0.60;;;7.80;99.90;;;;;;5026118;27;20264;-82
2023/01/09 01:47:53;;;;;;;0.65;0.65;;;7.80;99.90;;;;;;5023444;27;20209;-82
2023/01/09 01:50:47;;;;;;;0.70;0.70;;;7.80;99.90;;;;;;5021102;28;20160;-82
2023/01/09 01:53:20;;;;;;;0.70;0.70;;;7.70;99.90;;;;;;5021013;27;20545;-82
2023/01/09 01:56:01;;;;;;;0.70;0.70;;;7.70;99.90;;;;;;5031404;27;20163;-82
2023/01/09 01:58:28;;;;;;;0.60;0.60;;;7.60;99.90;;;;;;5025948;27;20039;-82
2023/01/09 02:00:53;;;;;;;0.60;0.60;;;7.60;99.90;;;;;;5028743;27;20039;-82
2023/01/09 02:03:27;;;;;;;0.60;0.60;;;7.60;99.90;;;;;;5032842;27;20081;-82
2023/01/09 02:05:53;;;;;;;0.70;0.70;;;7.50;99.90;;;;;;5029608;27;20122;-82
2023/01/09 02:08:20;;;;;;;0.68;0.68;;;7.40;99.90;;;;;;5026370;27;20073;-82
2023/01/09 02:10:46;;;;;;;0.68;0.68;;;7.40;99.90;;;;;;5008857;27;20250;-83
2023/01/09 02:13:13;;;;;;;0.65;0.65;;;7.30;99.90;;;;;;5038793;27;20043;-82
2023/01/09 02:16:14;;;;;;;0.60;0.60;;;7.30;99.90;;;;;;5018465;27;20415;-81
2023/01/09 02:18:52;;;;;;;0.60;0.60;;;7.30;99.90;;;;;;5028876;27;21267;-82
2023/01/09 02:21:18;;;;;;;0.60;0.60;;;7.20;99.90;;;;;;5030919;27;20141;-82
2023/01/09 02:23:56;;;;;;;0.60;0.60;;;7.10;99.90;;;;;;5013904;27;20055;-82
2023/01/09 02:26:41;;;;;;;0.60;0.60;;;7.10;99.90;;;;;;5025454;27;20118;-82
2023/01/09 02:29:32;;;;;;;0.70;0.70;;;7.10;99.90;;;;;;5028144;27;20750;-82
2023/01/09 02:32:07;;;;;;;0.70;0.70;;;7.00;99.90;;;;;;5027180;27;20043;-82
2023/01/09 02:35:05;;;;;;;0.63;0.63;;;7.10;99.90;;;;;;5024081;27;21029;-82
2023/01/09 02:37:46;;;;;;;0.60;0.60;;;7.00;99.90;;;;;;5021651;27;20622;-82
2023/01/09 02:40:26;;;;;;;0.70;0.70;;;6.90;99.90;;;;;;5019584;27;20054;-81
2023/01/09 02:42:54;;;;;;;0.60;0.60;;;6.90;99.90;;;;;;5001875;27;20156;-81
2023/01/09 02:45:20;;;;;;;0.60;0.60;;;6.90;99.90;;;;;;5029772;27;20772;-81
2023/01/09 02:47:46;;;;;;;0.65;0.65;;;6.90;99.90;;;;;;5011224;27;20073;-81
2023/01/09 02:50:20;;;;;;;0.60;0.60;;;6.80;99.90;;;;;;5013012;27;20043;-81
2023/01/09 02:52:54;;;;;;;0.70;0.70;;;6.80;99.90;;;;;;5022669;27;20847;-81
2023/01/09 02:55:39;;;;;;;0.60;0.60;;;6.60;99.90;;;;;;5024810;27;20139;-81
2023/01/09 02:58:10;;;;;;;0.60;0.60;;;6.60;99.90;;;;;;5024536;27;20039;-81
2023/01/09 03:01:00;;;;;;;0.70;0.70;;;6.60;99.90;;;;;;5027310;27;20385;-81
2023/01/09 03:03:36;;;;;;;0.70;0.70;;;6.60;99.90;;;;;;5023892;27;20616;-81
2023/01/09 03:06:22;;;;;;;0.63;0.63;;;6.60;99.90;;;;;;5004902;28;20908;-81
2023/01/09 03:08:53;;;;;;;0.70;0.70;;;6.60;99.90;;;;;;5045619;27;20146;-81
2023/01/09 03:11:20;;;;;;;0.70;0.70;;;6.50;99.90;;;;;;5042640;27;20046;-80
2023/01/09 03:13:51;;;;;;;0.70;0.70;;;6.50;99.90;;;;;;5028603;27;21230;-80
2023/01/09 03:16:25;;;;;;;0.60;0.60;;;6.50;99.90;;;;;;5009553;27;20529;-81
2023/01/09 03:18:54;;;;;;;0.65;0.65;;;6.40;99.90;;;;;;5036889;27;20049;-81
2023/01/09 03:21:22;;;;;;;0.60;0.60;;;6.50;99.90;;;;;;5028280;27;20080;-80
2023/01/09 03:23:56;;;;;;;0.60;0.60;;;6.30;99.90;;;;;;5016406;27;20050;-81
2023/01/09 03:26:23;;;;;;;0.60;0.60;;;6.40;99.90;;;;;;5005940;27;20126;-81
2023/01/09 03:28:49;;;;;;;0.60;0.60;;;6.40;99.90;;;;;;5027329;27;20855;-81
2023/01/09 03:31:15;;;;;;;0.60;0.60;;;6.40;99.90;;;;;;5022366;27;20061;-80
2023/01/09 03:33:41;;;;;;;0.68;0.68;;;6.30;99.90;;;;;;5027942;27;20050;-81
2023/01/09 03:36:08;;;;;;;0.70;0.70;;;6.30;99.90;;;;;;5029647;27;20043;-81
2023/01/09 03:38:34;;;;;;;0.70;0.70;;;6.30;99.90;;;;;;5024518;27;20039;-80
2023/01/09 03:41:00;;;;;;;0.65;0.65;;;6.20;99.90;;;;;;5030738;27;20051;-80
2023/01/09 03:43:26;;;;;;;0.60;0.60;;;6.30;99.90;;;;;;5021200;27;20053;-81
2023/01/09 03:45:52;;;;;;;0.70;0.70;;;6.00;99.90;;;;;;5026688;27;20043;-81
2023/01/09 03:48:17;;;;;;;0.70;0.70;;;6.00;99.90;;;;;;5025769;27;20586;-80
2023/01/09 03:50:46;;;;;;;0.63;0.63;;;5.90;99.90;;;;;;5021245;27;20047;-80
2023/01/09 03:53:12;;;;;;;0.60;0.60;;;6.00;99.90;;;;;;5028561;27;20359;-81
2023/01/09 03:55:42;;;;;;;0.60;0.60;;;5.90;99.90;;;;;;5024559;27;20967;-81
2023/01/09 03:58:07;;;;;;;0.63;0.63;;;5.80;99.90;;;;;;5015687;27;20586;-80
2023/01/09 04:00:33;;;;;;;0.60;0.60;;;6.00;99.90;;;;;;5012290;27;20600;-81
2023/01/09 04:02:59;;;;;;;0.70;0.70;;;5.80;99.90;;;;;;5018549;27;20043;-80
2023/01/09 04:05:25;;;;;;;0.60;0.60;;;5.80;99.90;;;;;;5042036;27;20237;-80
2023/01/09 04:07:50;;;;;;;0.70;0.70;;;5.90;99.90;;;;;;4994455;27;20492;-80
2023/01/09 04:10:16;;;;;;;0.60;0.60;;;6.00;99.90;;;;;;5031191;27;20157;-80
2023/01/09 04:12:42;;;;;;;0.70;0.70;;;6.00;99.90;;;;;;5032456;27;20631;-81
2023/01/09 04:15:08;;;;;;;0.70;0.70;;;6.10;99.90;;;;;;5030615;27;20047;-80
2023/01/09 04:17:34;;;;;;;0.60;0.60;;;6.00;99.90;;;;;;5031206;27;20463;-80
2023/01/09 04:19:59;;;;;;;0.70;0.70;;;6.30;99.90;;;;;;5027173;27;20382;-80
2023/01/09 04:22:25;;;;;;;0.70;0.70;;;6.20;99.90;;;;;;5033702;27;20478;-80
2023/01/09 04:24:51;;;;;;;0.70;0.70;;;6.00;99.90;;;;;;5025691;27;20050;-80
2023/01/09 04:27:16;;;;;;;0.60;0.60;;;6.10;99.90;;;;;;5032837;27;20784;-80
2023/01/09 04:29:42;;;;;;;0.65;0.65;;;6.00;99.90;;;;;;5028440;27;20765;-81
2023/01/09 04:32:08;;;;;;;0.70;0.70;;;6.20;99.90;;;;;;5012153;27;20116;-80
2023/01/09 04:34:34;;;;;;;0.65;0.65;;;6.00;99.90;;;;;;5013561;27;20039;-80
2023/01/09 04:36:59;;;;;;;0.70;0.70;;;6.20;99.90;;;;;;5036667;27;20488;-80
2023/01/09 04:39:25;;;;;;;0.70;0.70;;;6.10;99.90;;;;;;5031372;27;20078;-80
2023/01/09 04:41:51;;;;;;;0.70;0.70;;;6.00;99.90;;;;;;5031834;27;20538;-80
2023/01/09 04:44:19;;;;;;;0.70;0.70;;;6.00;99.90;;;;;;5033769;27;20739;-81
2023/01/09 04:46:45;;;;;;;0.68;0.68;;;5.80;99.90;;;;;;5023373;27;20082;-80
2023/01/09 04:49:11;;;;;;;0.65;0.65;;;6.00;99.90;;;;;;5009865;27;20412;-80
2023/01/09 04:51:37;;;;;;;0.70;0.70;;;5.90;99.90;;;;;;5023928;27;20047;-81
2023/01/09 04:54:03;;;;;;;0.60;0.60;;;5.80;99.90;;;;;;5023889;27;20526;-80
2023/01/09 04:56:29;;;;;;;0.65;0.65;;;5.80;99.90;;;;;;5024782;27;20597;-81
2023/01/09 04:58:54;;;;;;;0.70;0.70;;;5.70;99.90;;;;;;5027038;27;20043;-80
2023/01/09 05:01:20;;;;;;;0.65;0.65;;;5.80;99.90;;;;;;5028691;27;20054;-80
2023/01/09 05:03:46;;;;;;;0.60;0.60;;;5.60;99.90;;;;;;5036714;27;20069;-80
2023/01/09 05:06:12;;;;;;;0.60;0.60;;;5.60;99.90;;;;;;5029294;27;20035;-80
2023/01/09 05:08:37;;;;;;;0.60;0.60;;;5.70;99.90;;;;;;5008296;27;20449;-81
2023/01/09 05:11:03;;;;;;;0.60;0.60;;;5.60;99.90;;;;;;5028768;27;20122;-80
2023/01/09 05:13:29;;;;;;;0.63;0.63;;;5.70;99.90;;;;;;5028408;27;20050;-80
2023/01/09 05:15:55;;;;;;;0.68;0.68;;;5.50;99.90;;;;;;5012140;27;20046;-81
2023/01/09 05:18:21;;;;;;;0.60;0.60;;;5.50;99.90;;;;;;5027465;27;20082;-80
2023/01/09 05:20:46;;;;;;;0.70;0.70;;;5.60;99.90;;;;;;5037701;27;20554;-80
2023/01/09 05:23:12;;;;;;;0.60;0.60;;;5.50;99.90;;;;;;5047272;27;20455;-80
2023/01/09 05:25:38;;;;;;;0.70;0.70;;;5.50;99.90;;;;;;5019843;27;20705;-81
2023/01/09 05:28:04;;;;;;;0.60;0.60;;;5.40;99.90;;;;;;5020750;27;20062;-80
2023/01/09 05:30:29;;;;;;;0.60;0.60;;;5.30;99.90;;;;;;5033059;27;20274;-80
2023/01/09 05:32:55;;;;;;;0.70;0.70;;;5.30;99.90;;;;;;5034944;27;20503;-80
2023/01/09 05:35:22;;;;;;;0.70;0.70;;;5.40;99.90;;;;;;5035843;27;20107;-80
2023/01/09 05:37:48;;;;;;;0.70;0.70;;;5.40;99.90;;;;;;5036533;27;20069;-80
2023/01/09 05:40:14;;;;;;;0.60;0.60;;;5.30;99.90;;;;;;5033935;27;20043;-80
2023/01/09 05:42:42;;;;;;;0.68;0.68;;;5.40;99.90;;;;;;5031301;27;20121;-80
2023/01/09 05:45:08;;;;;;;0.68;0.68;;;5.30;99.90;;;;;;5033024;27;20047;-80
2023/01/09 05:47:34;;;;;;;0.60;0.60;;;5.30;99.90;;;;;;5036976;27;20559;-80
2023/01/09 05:50:00;;;;;;;0.60;0.60;;;5.30;99.90;;;;;;5037890;27;20716;-80
2023/01/09 05:52:26;;;;;;;0.60;0.60;;;5.50;99.90;;;;;;5033479;27;20042;-80
2023/01/09 05:54:52;;;;;;;0.63;0.63;;;5.40;99.90;;;;;;5040384;27;20952;-80
2023/01/09 05:57:18;;;;;;;0.60;0.60;;;5.40;99.90;;;;;;5034089;27;20115;-82
2023/01/09 05:59:44;;;;;;;0.70;0.70;;;5.30;99.90;;;;;;5036946;27;20539;-80
2023/01/09 06:02:09;;;;;;;0.63;0.63;;;5.50;99.90;;;;;;5020494;27;20043;-80
2023/01/09 06:04:35;;;;;;;0.70;0.70;;;5.40;99.90;;;;;;5053112;27;20047;-80
2023/01/09 06:07:01;;;;;;;0.60;0.60;;;5.30;99.90;;;;;;5032628;27;20123;-80
2023/01/09 06:09:27;;;;;;;0.65;0.65;;;5.50;99.90;;;;;;5048743;27;20143;-80
2023/01/09 06:11:53;;;;;;;0.70;0.70;;;5.40;99.90;;;;;;5017291;27;20065;-81
2023/01/09 06:14:20;;;;;;;0.70;0.70;;;5.30;99.90;;;;;;5031985;27;20858;-81
2023/01/09 06:16:45;;;;;;;0.70;0.70;;;5.40;99.90;;;;;;5034434;27;20172;-79
2023/01/09 06:19:11;;;;;;;0.60;0.60;;;5.30;99.90;;;;;;5030497;27;20306;-80
2023/01/09 06:21:37;;;;;;;0.63;0.63;;;5.40;99.90;;;;;;5031990;27;20085;-80
2023/01/09 06:24:03;;;;;;;0.70;0.70;;;5.30;99.90;;;;;;5035662;27;20438;-80
2023/01/09 06:26:29;;;;;;;0.70;0.70;;;5.20;99.90;;;;;;5026995;27;20598;-80
2023/01/09 06:28:55;;;;;;;0.70;0.70;;;5.20;99.90;;;;;;5041186;27;20739;-80
2023/01/09 06:31:24;;;;;;;0.60;0.60;;;5.30;99.90;;;;;;5037685;27;20496;-80
2023/01/09 06:33:50;;;;;;;0.68;0.68;;;5.20;99.90;;;;;;5032255;27;20459;-80
2023/01/09 06:36:16;;;;;;;0.70;0.70;;;5.20;99.90;;;;;;5034952;27;20960;-80
2023/01/09 06:38:42;;;;;;;0.60;0.60;;;5.10;99.90;;;;;;5035837;27;21110;-80
2023/01/09 06:41:08;;;;;;;0.60;0.60;;;5.20;99.90;;;;;;5033827;27;20072;-80
2023/01/09 06:43:34;;;;;;;0.60;0.60;;;5.10;99.90;;;;;;5016688;27;20038;-80
2023/01/09 06:46:00;;;;;;;0.60;0.60;;;5.20;99.90;;;;;;5037399;27;20078;-80
2023/01/09 06:48:26;;;;;;;0.65;0.65;;;5.00;99.90;;;;;;5038454;27;20055;-80
2023/01/09 06:50:53;;;;;;;0.70;0.70;;;5.10;99.90;;;;;;5031526;27;20551;-80
2023/01/09 06:53:20;;;;;;;0.60;0.60;;;5.20;99.90;;;;;;5035833;27;20527;-80
2023/01/09 06:55:45;;;;;;;0.70;0.70;;;5.20;99.90;;;;;;5029529;27;20237;-80
2023/01/09 06:58:11;;;;;;;0.60;0.60;;;5.20;99.90;;;;;;5038824;27;20050;-80
2023/01/09 07:00:37;;;;;;;0.60;0.60;;;5.40;99.90;;;;;;5035571;27;20267;-80
2023/01/09 07:03:04;;;;;;;0.65;0.65;;;5.30;99.90;;;;;;5033034;27;20486;-81
2023/01/09 07:05:32;;;;;;;0.65;0.65;;;5.50;99.90;;;;;;5037933;27;20162;-80
2023/01/09 07:07:58;;;;;;;0.60;0.60;;;5.50;99.90;;;;;;5034318;27;20043;-80
2023/01/09 07:10:24;;;;;;;0.60;0.60;;;5.50;99.90;;;;;;5038511;27;20043;-81
2023/01/09 07:12:50;;;;;;;0.70;0.70;;;5.60;99.90;;;;;;5029912;27;20094;-80
2023/01/09 07:15:15;;;;;;;0.70;0.70;;;5.50;99.90;;;;;;5034679;27;20088;-80
2023/01/09 07:17:41;;;;;;;0.63;0.63;;;5.50;99.90;;;;;;5034022;27;20520;-80
2023/01/09 07:20:08;;;;;;;0.70;0.70;;;5.40;99.90;;;;;;5031674;27;20054;-80
2023/01/09 07:22:33;;;;;;;0.60;0.60;;;5.50;99.90;;;;;;5032977;27;20047;-80
2023/01/09 07:24:59;;;;;;;0.60;0.60;;;5.70;99.90;;;;;;5029625;27;20066;-80
2023/01/09 07:27:25;;;;;;;0.60;0.60;;;5.60;99.90;;;;;;5019717;27;20503;-80
2023/01/09 07:29:52;;;;;;;0.68;0.68;;;5.70;99.90;;;;;;5033732;27;20051;-80
2023/01/09 07:32:18;;;;;;;0.65;0.65;;;5.90;99.90;;;;;;5030680;27;20067;-80
2023/01/09 07:34:44;;;;;;;0.70;0.70;;;6.00;99.90;;;;;;5028516;27;21008;-80
2023/01/09 07:37:09;;;;;;;0.60;0.60;;;6.00;99.90;;;;;;5039572;27;20878;-80
2023/01/09 07:39:35;;;;;;;0.63;0.63;;;6.00;99.90;;;;;;5036376;27;20051;-80
2023/01/09 07:42:01;;;;;;;0.60;0.60;;;6.10;99.90;;;;;;5021142;27;20849;-80
2023/01/09 07:44:27;;;;;;;0.60;0.60;;;6.10;99.90;;;;;;5041287;27;20354;-80
2023/01/09 07:46:52;;;;;;;0.60;0.60;;;6.20;99.90;;;;;;5035321;27;20047;-79
2023/01/09 07:49:18;;;;;;;0.63;0.63;;;6.20;99.90;;;;;;5045081;27;20047;-80
2023/01/09 07:51:44;;;;;;;0.60;0.60;;;6.30;99.90;;;;;;5036127;27;20426;-80
2023/01/09 07:54:11;;;;;;;0.60;0.60;;;6.30;99.90;;;;;;5036867;27;20099;-79
2023/01/09 07:56:38;;;;;;;0.70;0.70;;;6.30;99.90;;;;;;5048961;27;20827;-79
2023/01/09 07:59:04;;;;;;;0.60;0.60;;;6.40;99.90;;;;;;5038863;27;20417;-80
2023/01/09 08:01:30;;;;;;;0.65;0.65;;;6.40;99.90;;;;;;5026631;27;20142;-79
2023/01/09 08:03:56;;;;;;;1.20;1.15;;;6.30;99.90;;;;;;5026283;27;20043;-80
2023/01/09 08:06:22;;;;;;;0.70;0.70;;;6.50;99.90;;;;;;5017193;27;20055;-80
2023/01/09 08:08:48;;;;;;;0.60;0.60;;;6.40;99.90;;;;;;5015471;27;20047;-80
2023/01/09 08:11:15;;;;;;;0.60;0.60;;;6.50;99.90;;;;;;5028164;27;20046;-80
2023/01/09 08:13:41;;;;;;;0.65;0.65;;;6.40;99.90;;;;;;5023677;27;20138;-80
2023/01/09 08:16:06;;;;;;;0.63;0.63;;;6.50;99.90;;;;;;5017958;27;20045;-80
2023/01/09 08:18:32;;;;;;;0.60;0.60;;;6.60;99.90;;;;;;5027360;27;20440;-80
2023/01/09 08:20:58;;;;;;;0.60;0.60;;;6.60;99.90;;;;;;5029717;27;20713;-80
2023/01/09 08:23:24;;;;;;;0.70;0.70;;;6.50;99.90;;;;;;5032842;27;20430;-80
2023/01/09 08:25:51;;;;;;;0.80;0.80;;;6.60;99.90;;;;;;5038918;27;20527;-81
2023/01/09 08:28:17;;;;;;;0.70;0.70;;;6.70;99.90;;;;;;5031800;27;20156;-80
2023/01/09 08:30:42;;;;;;;0.60;0.60;;;6.70;99.90;;;;;;5042961;27;20057;-80
2023/01/09 08:33:08;;;;;;;0.70;0.70;;;6.70;99.90;;;;;;5032765;27;20046;-80
2023/01/09 08:35:35;;;;;;;0.70;0.70;;;6.70;99.90;;;;;;5028438;27;20058;-80
2023/01/09 08:38:01;;;;;;;0.60;0.60;;;6.80;99.90;;;;;;5031222;27;20101;-80
2023/01/09 08:40:27;;;;;;;0.68;0.68;;;6.80;99.90;;;;;;5032067;27;20587;-80
2023/01/09 08:48:21;;;;;;;0.63;0.63;;;6.80;99.90;;;;;;5026974;27;20146;-80
2023/01/09 08:50:47;;;;;;;0.70;0.70;;;6.90;99.90;;;;;;5032410;27;20335;-80
2023/01/09 08:53:14;;;;;;;0.70;0.70;;;6.90;99.90;;;;;;5036234;27;20047;-80
2023/01/09 08:55:40;;;;;;;0.68;0.68;;;7.00;99.90;;;;;;5015797;27;20246;-81
2023/01/09 08:58:06;;;;;;;0.68;0.68;;;7.00;99.90;;;;;;5034579;27;20043;-80
2023/01/09 09:00:32;;;;;;;0.65;0.65;;;7.00;99.90;;;;;;5030018;27;20051;-80
2023/01/09 09:02:59;;;;;;;0.63;0.63;;;7.00;99.90;;;;;;5032451;27;20054;-80
2023/01/09 09:05:27;;;;;;;0.68;0.68;;;7.00;99.90;;;;;;5025138;27;20520;-80
2023/01/09 09:07:54;;;;;;;0.65;0.65;;;7.10;99.90;;;;;;5015955;27;20050;-80
2023/01/09 09:10:25;;;;;;;0.60;0.60;;;7.10;99.90;;;;;;5050548;27;20043;-79
2023/01/09 09:12:54;;;;;;;0.70;0.70;;;7.20;99.90;;;;;;5014889;27;20082;-80
2023/01/09 09:15:24;;;;;;;0.60;0.60;;;7.20;99.90;;;;;;5012785;27;21051;-81
2023/01/09 09:18:00;;;;;;;0.60;0.60;;;7.10;99.90;;;;;;5027038;27;20059;-80
2023/01/09 09:20:29;;;;;;;0.60;0.60;;;7.20;99.90;;;;;;5031479;27;20403;-80
2023/01/09 09:22:55;;;;;;;0.60;0.60;;;7.20;99.90;;;;;;5041074;27;20110;-81
2023/01/09 09:25:21;;;;;;;0.65;0.65;;;7.20;99.90;;;;;;5021559;27;20056;-80
2023/01/09 09:27:47;;;;;;;0.60;0.60;;;7.30;99.90;;;;;;5032487;27;20449;-80
2023/01/09 09:30:16;;;;;;;0.60;0.60;;;7.40;99.90;;;;;;5016546;27;20514;-80
2023/01/09 09:32:41;;;;;;;0.70;0.70;;;7.40;99.90;;;;;;5027989;27;20057;-80
2023/01/09 09:35:07;;;;;;;0.70;0.70;;;7.40;99.90;;;;;;5033393;27;20054;-80
2023/01/09 09:37:33;;;;;;;0.60;0.60;;;7.40;99.90;;;;;;5019541;27;20065;-80
2023/01/09 09:39:59;;;;;;;0.65;0.65;;;7.50;99.90;;;;;;5026291;27;20772;-80
2023/01/09 09:46:04;;;;;;;0.60;0.60;;;7.60;99.90;;;;;;5035447;27;20043;-80
2023/01/09 09:48:36;;;;;;;0.60;0.60;;;7.60;99.90;;;;;;5031062;27;20484;-80
2023/01/09 09:51:33;;;;;;;0.60;0.60;;;7.50;99.90;;;;;;5033479;27;20434;-80
2023/01/09 09:54:09;;;;;;;0.70;0.70;;;7.50;99.90;;;;;;5036776;27;20043;-80
2023/01/09 09:56:42;;;;;;;0.65;0.65;;;7.50;99.90;;;;;;5031379;27;20750;-80
2023/01/09 09:59:24;;;;;;;0.70;0.70;;;7.60;99.90;;;;;;5047102;27;20057;-80
2023/01/09 10:01:52;;;;;;;0.60;0.60;;;7.50;99.90;;;;;;5029688;27;20884;-80
2023/01/09 10:04:21;;;;;;;0.70;0.70;;;7.60;99.90;;;;;;5030989;27;20579;-80
2023/01/09 10:06:51;;;;;;;0.65;0.65;;;7.60;99.90;;;;;;5041035;27;20107;-80
2023/01/09 10:09:32;;;;;;;0.63;0.63;;;7.50;99.90;;;;;;5028982;27;20478;-80
2023/01/09 10:12:23;;;;;;;0.65;0.65;;;7.50;99.90;;;;;;5011455;27;20058;-80
2023/01/09 10:14:49;;;;;;;0.60;0.60;;;7.50;99.90;;;;;;5029727;27;20050;-80
2023/01/09 10:18:02;;;;;;;0.68;0.68;;;7.50;99.90;;;;;;5029294;27;20070;-80
2023/01/09 10:20:49;;;;;;;0.60;0.60;;;7.50;99.90;;;;;;4958755;28;20049;-80
2023/01/09 10:23:42;;;;;;;0.60;0.60;;;7.50;99.90;;;;;;4963761;28;20049;-80
2023/01/09 10:26:45;;;;;;;0.70;0.70;;;7.50;99.90;;;;;;4974537;28;20476;-80
2023/01/09 10:29:23;;;;;;;0.70;0.70;;;7.60;99.90;;;;;;5000072;27;20054;-80
2023/01/09 10:31:52;;;;;;;0.60;0.60;;;7.60;99.90;;;;;;5035440;27;20562;-80
2023/01/09 10:34:35;;;;;;;0.60;0.60;;;7.60;99.90;;;;;;5065266;27;20050;-80
2023/01/09 10:37:18;;;;;;;0.68;0.68;;;7.50;99.90;;;;;;5020991;27;20051;-80
2023/01/09 10:39:56;;;;;;;0.63;0.63;;;7.60;99.90;;;;;;5038404;27;20058;-80
2023/01/09 10:42:35;;;;;;;0.70;0.70;;;7.60;99.90;;;;;;5046949;27;20517;-80
2023/01/09 10:45:49;;;;;;;0.60;0.60;;;7.60;99.90;;;;;;5041150;27;20168;-80
2023/01/09 10:48:36;;;;;;;0.70;0.70;;;7.60;99.90;;;;;;5020195;27;20691;-80
2023/01/09 10:51:13;;;;;;;0.70;0.70;;;7.60;99.90;;;;;;5038345;27;20043;-80
2023/01/09 10:53:42;;;;;;;0.60;0.60;;;7.40;99.90;;;;;;5040283;27;20519;-81
2023/01/09 10:56:21;;;;;;;0.60;0.60;;;7.50;99.90;;;;;;5052030;27;20363;-81
2023/01/09 10:58:46;;;;;;;0.60;0.60;;;7.50;99.90;;;;;;5030253;27;20248;-81
2023/01/09 11:01:13;;;;;;;0.60;0.60;;;7.50;99.90;;;;;;5014657;27;20058;-81
2023/01/09 11:03:39;;;;;;;0.60;0.60;;;7.50;99.90;;;;;;5037165;27;20051;-81
2023/01/09 11:06:28;;;;;;;0.60;0.60;;;7.40;99.90;;;;;;5039581;27;20860;-81
2023/01/09 11:08:57;;;;;;;0.65;0.65;;;7.50;99.90;;;;;;5040672;27;20070;-81
2023/01/09 11:11:33;;;;;;;0.60;0.60;;;7.50;99.90;;;;;;5040754;27;20096;-81
2023/01/09 11:14:15;;;;;;;0.65;0.65;;;7.50;99.90;;;;;;5034712;27;20039;-81
2023/01/09 11:16:55;;;;;;;0.65;0.65;;;7.50;99.90;;;;;;5015037;27;20055;-81
2023/01/09 11:19:21;;;;;;;0.60;0.60;;;7.60;99.90;;;;;;5032954;27;20525;-81
2023/01/09 11:21:48;;;;;;;0.60;0.60;;;7.70;99.90;;;;;;5041117;27;20574;-82
2023/01/09 11:24:22;;;;;;;0.60;0.60;;;7.60;99.90;;;;;;5059690;27;20046;-81
2023/01/09 11:27:08;;;;;;;0.63;0.63;;;7.60;99.90;;;;;;5033945;27;20054;-81
2023/01/09 11:29:34;;;;;;;0.70;0.70;;;7.70;99.90;;;;;;5032981;27;20047;-81
2023/01/09 11:32:03;;;;;;;0.60;0.60;;;7.60;99.90;;;;;;5034839;27;20081;-81
2023/01/09 11:34:35;;;;;;;0.60;0.60;;;7.60;99.90;;;;;;5027558;27;20054;-81
2023/01/09 11:37:17;;;;;;;0.60;0.60;;;7.80;99.90;;;;;;5024170;27;20278;-80
2023/01/09 11:39:46;;;;;;;0.60;0.60;;;7.70;99.90;;;;;;5034091;27;20480;-82
2023/01/09 11:45:17;;;;;;;0.63;0.63;;;7.70;99.90;;;;;;5042818;27;20479;-81
2023/01/09 11:47:43;;;;;;;0.60;0.60;;;7.70;99.90;;;;;;5045602;27;20101;-80
2023/01/09 11:50:17;;;;;;;0.60;0.60;;;7.70;99.90;;;;;;5059676;27;20084;-82
2023/01/09 11:52:44;;;;;;;0.60;0.60;;;7.80;99.90;;;;;;5040627;27;20468;-81
2023/01/09 11:55:16;;;;;;;0.60;0.60;;;7.80;99.90;;;;;;5033853;27;20145;-81
2023/01/09 11:57:42;;;;;;;0.60;0.60;;;7.90;99.90;;;;;;5036562;27;20054;-82
2023/01/09 12:00:28;;;;;;;0.60;0.60;;;7.90;99.90;;;;;;5039463;27;20043;-81
2023/01/09 12:03:03;;;;;;;0.60;0.60;;;8.00;99.90;;;;;;5056949;27;20047;-80
2023/01/09 12:05:38;;;;;;;0.60;0.60;;;8.00;99.90;;;;;;5047227;27;20664;-80
2023/01/09 12:08:32;;;;;;;0.60;0.60;;;7.90;99.90;;;;;;5028234;27;20038;-81
2023/01/09 12:11:20;;;;;;;0.68;0.68;;;8.00;99.90;;;;;;5046833;27;20245;-80
2023/01/09 12:14:11;;;;;;;0.60;0.60;;;8.00;99.90;;;;;;5042584;27;20062;-81
2023/01/09 12:17:17;;;;;;;0.60;0.60;;;8.10;99.90;;;;;;5040421;27;20849;-81
2023/01/09 12:19:49;;;;;;;0.60;0.60;;;8.20;99.90;;;;;;5029188;27;20054;-81
2023/01/09 12:22:36;;;;;;;0.70;0.70;;;8.20;99.90;;;;;;5032173;27;20479;-81
2023/01/09 12:25:20;;;;;;;0.60;0.60;;;8.20;99.90;;;;;;5038781;27;20058;-81
2023/01/09 12:27:46;;;;;;;0.60;0.60;;;8.20;99.90;;;;;;5047501;27;20842;-82
2023/01/09 12:30:50;;;;;;;0.60;0.60;;;8.20;99.90;;;;;;5044246;27;20243;-81
2023/01/09 12:33:35;;;;;;;0.60;0.60;;;8.10;99.90;;;;;;5005552;27;20694;-81
2023/01/09 12:36:28;;;;;;;0.60;0.60;;;8.10;99.90;;;;;;5044808;27;20756;-81
2023/01/09 12:39:16;;;;;;;0.60;0.60;;;8.10;99.90;;;;;;5041937;27;20426;-81
2023/01/09 12:42:22;;;;;;;0.60;0.60;;;8.20;99.90;;;;;;5038039;27;20055;-81
2023/01/09 12:44:53;;;;;;;0.60;0.60;;;8.20;99.90;;;;;;4972280;28;20083;-80
2023/01/09 12:47:27;;;;;;;0.60;0.60;;;8.20;99.90;;;;;;5026280;27;20066;-82
2023/01/09 12:50:15;;;;;;;0.60;0.60;;;8.30;99.90;;;;;;5039966;27;20047;-81
2023/01/09 12:52:45;;;;;;;0.60;0.60;;;8.20;99.90;;;;;;5043672;27;20044;-81
2023/01/09 12:55:19;;;;;;;0.60;0.60;;;8.30;99.90;;;;;;5037167;27;20501;-82
2023/01/09 12:57:50;;;;;;;0.60;0.60;;;8.20;99.90;;;;;;5030018;27;20074;-82
2023/01/09 13:00:25;;;;;;;0.60;0.60;;;8.30;99.90;;;;;;5016667;27;20831;-82
2023/01/09 13:03:23;;;;;;;0.60;0.60;;;8.30;99.90;;;;;;5040660;27;20508;-82
2023/01/09 13:05:52;;;;;;;0.60;0.60;;;8.30;99.90;;;;;;5032052;27;20046;-81
2023/01/09 13:08:32;;;;;;;0.60;0.60;;;8.30;99.90;;;;;;5032597;27;20579;-82
2023/01/09 13:11:09;;;;;;;0.60;0.60;;;8.30;99.90;;;;;;5033346;27;20055;-81
2023/01/09 13:13:46;;;;;;;0.60;0.60;;;8.40;99.90;;;;;;5035930;27;20043;-81
2023/01/09 13:16:17;;;;;;;0.60;0.60;;;8.40;99.90;;;;;;5035963;27;20062;-81
2023/01/09 13:19:12;;;;;;;0.60;0.60;;;8.40;99.90;;;;;;5040728;27;20441;-82
2023/01/09 13:21:38;;;;;;;;;;;8.50;99.90;;;;;;5024957;27;20395;-81
2023/01/09 13:24:09;;;;;;;0.60;0.60;;;8.50;99.90;;;;;;5031687;27;19962;-81
2023/01/09 13:26:56;;;;;;;0.60;0.60;;;8.50;99.90;;;;;;5037759;27;20873;-81
2023/01/09 13:29:35;;;;;;;0.60;0.60;;;8.60;99.90;;;;;;5034783;27;20046;-81
2023/01/09 13:32:13;;;;;;;0.60;0.60;;;8.50;99.90;;;;;;5039037;27;20126;-80